Time;durP1;ratioP1;P1;durP2;ratioP2;P2;SDS_P1;SDS_P2;PMS_P1;PMS_P2;Temp;Humidity;BMP_temperature;BMP_pressure;BME280_temperature;BME280_humidity;BME280_pressure;Samples;Min_cycle;Max_cycle;Signal;HPM_P1;HPM_P2
2023/06/15 00:00:33;;;;;;;3.42;1.42;;;17.60;92.50;;;;;;5159038;27;20099;-49
2023/06/15 00:02:59;;;;;;;3.90;1.42;;;17.50;92.60;;;;;;5140928;27;20402;-50
2023/06/15 00:05:25;;;;;;;3.67;1.40;;;17.50;92.60;;;;;;5159143;27;20047;-50
2023/06/15 00:07:51;;;;;;;4.22;1.40;;;17.50;92.70;;;;;;5159135;27;20173;-47
2023/06/15 00:10:17;;;;;;;2.63;1.30;;;17.40;92.70;;;;;;5158852;27;20086;-48
2023/06/15 00:12:43;;;;;;;;;;;17.40;92.80;;;;;;5159215;27;20046;-49
2023/06/15 00:15:10;;;;;;;3.20;1.27;;;17.40;93.30;;;;;;5158707;27;19926;-50
2023/06/15 00:17:41;;;;;;;;;;;17.30;92.90;;;;;;5140846;27;20050;-51
2023/06/15 00:20:08;;;;;;;3.53;1.60;;;17.30;93.40;;;;;;5124180;27;19918;-49
2023/06/15 00:22:38;;;;;;;3.40;1.33;;;17.20;93.10;;;;;;5158760;27;20054;-48
2023/06/15 00:25:05;;;;;;;4.18;1.50;;;17.20;93.40;;;;;;5140354;27;20089;-49
2023/06/15 00:27:30;;;;;;;2.58;1.20;;;17.20;93.50;;;;;;5158572;27;20532;-48
2023/06/15 00:29:56;;;;;;;3.15;1.33;;;17.20;93.60;;;;;;5158726;27;20046;-51
2023/06/15 00:32:22;;;;;;;3.22;1.55;;;17.20;93.70;;;;;;5158559;27;20054;-49
2023/06/15 00:34:47;;;;;;;4.15;1.33;;;17.20;93.90;;;;;;5158593;27;20065;-48
2023/06/15 00:37:13;;;;;;;3.58;1.70;;;17.30;93.90;;;;;;5139469;27;20043;-48
2023/06/15 00:39:39;;;;;;;2.50;1.30;;;17.20;93.70;;;;;;5158606;27;20134;-49
2023/06/15 00:42:05;;;;;;;3.72;1.63;;;17.20;93.80;;;;;;5158384;27;20371;-49
2023/06/15 00:44:31;;;;;;;5.10;1.45;;;17.20;94.00;;;;;;5158573;27;20043;-52
2023/06/15 00:46:59;;;;;;;6.43;1.50;;;17.10;94.30;;;;;;5139966;27;20044;-51
2023/06/15 00:49:25;;;;;;;3.20;1.45;;;17.10;94.00;;;;;;5140061;27;20063;-51
2023/06/15 00:51:51;;;;;;;;;;;17.10;94.20;;;;;;5158507;27;20053;-49
2023/06/15 00:54:22;;;;;;;5.38;1.48;;;17.00;94.70;;;;;;5157614;27;20281;-50
2023/06/15 00:56:52;;;;;;;2.47;1.20;;;17.00;94.50;;;;;;5157932;27;20039;-52
2023/06/15 00:59:18;;;;;;;4.53;1.25;;;17.00;94.40;;;;;;5158142;27;20122;-49
2023/06/15 01:01:44;;;;;;;3.75;1.23;;;17.00;94.90;;;;;;5158095;27;20043;-50
2023/06/15 01:04:11;;;;;;;2.60;1.20;;;17.00;95.10;;;;;;5139705;27;20046;-50
2023/06/15 01:06:41;;;;;;;;;;;17.00;95.10;;;;;;5158246;27;20042;-51
2023/06/15 01:09:09;;;;;;;3.60;1.50;;;17.00;95.60;;;;;;5139629;27;20362;-51
2023/06/15 01:11:35;;;;;;;3.17;1.63;;;17.00;95.20;;;;;;5157955;27;20110;-51
2023/06/15 01:14:04;;;;;;;3.63;1.70;;;17.00;95.20;;;;;;5157813;27;20045;-51
2023/06/15 01:16:40;;;;;;;4.15;1.60;;;17.00;95.30;;;;;;5157701;27;20046;-50
2023/06/15 01:19:20;;;;;;;4.95;1.50;;;17.00;95.30;;;;;;5139554;27;20131;-49
2023/06/15 01:21:47;;;;;;;3.45;1.25;;;16.90;95.50;;;;;;5157686;27;20050;-51
2023/06/15 01:24:31;;;;;;;3.90;1.58;;;16.90;95.80;;;;;;5157969;27;20389;-50
2023/06/15 01:26:58;;;;;;;3.08;1.15;;;16.90;95.80;;;;;;5139157;27;20054;-52
2023/06/15 01:29:26;;;;;;;2.85;1.42;;;16.90;95.80;;;;;;5157564;27;20075;-51
2023/06/15 01:31:52;;;;;;;4.70;1.73;;;16.90;96.20;;;;;;5157493;27;20122;-49
2023/06/15 01:34:18;;;;;;;4.55;1.70;;;16.90;96.40;;;;;;5157359;27;20481;-49
2023/06/15 01:36:44;;;;;;;3.60;1.70;;;16.90;96.60;;;;;;5157416;27;20042;-49
2023/06/15 01:39:10;;;;;;;6.63;2.00;;;16.90;96.60;;;;;;5157756;27;20051;-49
2023/06/15 01:41:37;;;;;;;4.03;1.63;;;16.90;96.70;;;;;;5138917;27;20054;-48
2023/06/15 01:44:04;;;;;;;5.35;1.70;;;16.90;97.00;;;;;;5157135;27;20046;-48
2023/06/15 01:46:32;;;;;;;3.05;1.50;;;16.90;97.20;;;;;;5157232;27;20045;-48
2023/06/15 01:48:58;;;;;;;4.10;1.92;;;16.80;97.50;;;;;;5157084;27;20401;-49
2023/06/15 01:51:24;;;;;;;3.97;2.00;;;16.80;97.50;;;;;;5138608;27;20050;-49
2023/06/15 01:53:50;;;;;;;;;;;16.80;97.80;;;;;;5139230;27;20086;-49
2023/06/15 01:56:16;;;;;;;3.55;1.60;;;16.80;98.50;;;;;;5156790;27;19974;-49
2023/06/15 01:58:42;;;;;;;;;;;16.90;98.00;;;;;;5157376;27;20050;-49
2023/06/15 02:01:08;;;;;;;4.38;1.50;;;16.90;98.80;;;;;;5156813;27;19919;-48
2023/06/15 02:03:34;;;;;;;4.30;1.75;;;16.90;98.40;;;;;;5156578;27;20046;-50
2023/06/15 02:05:59;;;;;;;3.83;1.48;;;16.90;98.50;;;;;;5155890;27;20051;-49
2023/06/15 02:08:25;;;;;;;3.55;1.50;;;16.90;98.60;;;;;;5156779;27;20063;-48
2023/06/15 02:10:51;;;;;;;4.05;1.85;;;16.90;98.60;;;;;;5138414;27;20046;-48
2023/06/15 02:13:17;;;;;;;3.25;1.52;;;16.90;98.70;;;;;;5138557;27;20135;-48
2023/06/15 02:15:43;;;;;;;5.55;1.92;;;16.90;98.80;;;;;;5156454;27;20046;-49
2023/06/15 02:18:14;;;;;;;4.03;2.00;;;16.80;98.80;;;;;;5156542;27;20043;-49
2023/06/15 02:20:40;;;;;;;3.65;1.40;;;16.80;98.80;;;;;;5138100;27;20050;-50
2023/06/15 02:23:06;;;;;;;4.05;1.60;;;16.80;98.70;;;;;;5156469;27;20452;-49
2023/06/15 02:25:32;;;;;;;4.60;2.20;;;16.80;98.80;;;;;;5156427;27;20047;-48
2023/06/15 02:27:58;;;;;;;4.90;1.88;;;16.70;98.90;;;;;;5156229;27;20085;-49
2023/06/15 02:30:25;;;;;;;4.47;1.92;;;16.70;99.10;;;;;;5156302;27;20038;-49
2023/06/15 02:32:52;;;;;;;4.20;1.77;;;16.70;99.10;;;;;;5156314;27;20042;-50
2023/06/15 02:35:18;;;;;;;3.30;1.48;;;16.70;99.30;;;;;;5156158;27;20121;-48
2023/06/15 02:37:44;;;;;;;4.70;1.88;;;16.70;99.40;;;;;;5156240;27;20094;-48
2023/06/15 02:40:10;;;;;;;5.50;1.80;;;16.70;99.50;;;;;;5156212;27;20055;-49
2023/06/15 02:42:37;;;;;;;5.45;1.83;;;16.70;99.50;;;;;;5156140;27;20046;-48
2023/06/15 02:45:06;;;;;;;3.95;1.85;;;16.70;99.40;;;;;;5155941;27;20405;-48
2023/06/15 02:47:35;;;;;;;2.95;1.50;;;16.60;99.40;;;;;;5156109;27;20050;-49
2023/06/15 02:50:05;;;;;;;4.10;1.83;;;16.60;99.30;;;;;;5156170;27;20088;-49
2023/06/15 02:52:31;;;;;;;3.97;1.98;;;16.50;99.20;;;;;;5155897;27;20046;-49
2023/06/15 02:54:57;;;;;;;;;;;16.40;99.10;;;;;;5156404;27;20053;-48
2023/06/15 02:57:24;;;;;;;5.15;1.98;;;16.30;99.60;;;;;;5155666;27;20060;-48
2023/06/15 02:59:50;;;;;;;;;;;16.20;99.50;;;;;;5156011;27;20042;-48
2023/06/15 03:02:16;;;;;;;3.83;2.10;;;16.10;99.90;;;;;;5137483;27;20376;-49
2023/06/15 03:04:44;;;;;;;4.15;1.80;;;16.00;99.80;;;;;;5155712;27;20069;-49
2023/06/15 03:07:17;;;;;;;4.72;1.90;;;16.00;99.80;;;;;;5155655;27;20042;-49
2023/06/15 03:09:52;;;;;;;4.72;1.60;;;15.90;99.90;;;;;;5155792;27;20127;-50
2023/06/15 03:12:18;;;;;;;4.05;1.70;;;15.80;99.90;;;;;;5155419;27;20582;-48
2023/06/15 03:14:44;;;;;;;;;;;15.70;99.90;;;;;;5137591;27;20091;-50
2023/06/15 03:17:13;;;;;;;3.53;1.90;;;15.70;99.90;;;;;;5155122;27;19919;-48
2023/06/15 03:19:43;;;;;;;4.85;1.80;;;15.70;99.90;;;;;;5155686;27;20125;-48
2023/06/15 03:22:09;;;;;;;3.83;1.83;;;15.60;99.90;;;;;;5155409;27;20046;-48
2023/06/15 03:24:35;;;;;;;5.05;2.22;;;15.60;99.90;;;;;;5137218;27;20053;-48
2023/06/15 03:27:03;;;;;;;4.32;2.15;;;15.60;99.90;;;;;;5155244;27;20093;-49
2023/06/15 03:29:29;;;;;;;4.38;2.10;;;15.60;99.90;;;;;;5155139;27;20078;-48
2023/06/15 03:31:56;;;;;;;5.43;2.13;;;15.60;99.90;;;;;;5155408;27;20042;-48
2023/06/15 03:34:22;;;;;;;4.65;1.80;;;15.60;99.90;;;;;;5155526;27;20480;-48
2023/06/15 03:36:51;;;;;;;5.25;1.65;;;15.60;99.90;;;;;;5155259;27;20498;-48
2023/06/15 03:39:18;;;;;;;5.47;2.03;;;15.60;99.90;;;;;;5155114;27;20505;-48
2023/06/15 03:41:44;;;;;;;4.28;1.88;;;15.60;99.90;;;;;;5155360;27;20042;-48
2023/06/15 03:44:11;;;;;;;4.57;2.08;;;15.70;99.90;;;;;;5155526;27;20047;-48
2023/06/15 03:46:36;;;;;;;6.07;1.90;;;15.60;99.90;;;;;;5155149;27;20035;-49
2023/06/15 03:49:02;;;;;;;4.57;1.92;;;15.60;99.90;;;;;;5155380;27;20043;-48
2023/06/15 03:51:28;;;;;;;4.28;2.35;;;15.60;99.90;;;;;;5155322;27;20066;-48
2023/06/15 03:53:53;;;;;;;8.55;2.33;;;15.50;99.90;;;;;;5154991;27;20035;-48
2023/06/15 03:56:19;;;;;;;5.20;2.20;;;15.50;99.90;;;;;;5155351;27;20043;-48
2023/06/15 03:58:45;;;;;;;5.65;2.55;;;15.50;99.90;;;;;;5155137;27;20495;-48
2023/06/15 04:01:12;;;;;;;4.93;2.43;;;15.40;99.90;;;;;;5155157;27;20058;-48
2023/06/15 04:03:39;;;;;;;5.85;2.58;;;15.40;99.90;;;;;;5155090;27;20276;-48
2023/06/15 04:06:05;;;;;;;4.70;2.35;;;15.50;99.90;;;;;;5155084;27;20507;-48
2023/06/15 04:08:37;;;;;;;4.82;2.38;;;15.40;99.90;;;;;;5136577;27;20055;-49
2023/06/15 04:11:03;;;;;;;4.65;2.50;;;15.40;99.90;;;;;;5155643;27;20115;-49
2023/06/15 04:13:29;;;;;;;8.05;2.50;;;15.40;99.90;;;;;;5136746;27;20046;-48
2023/06/15 04:15:55;;;;;;;5.60;2.15;;;15.40;99.90;;;;;;5154904;27;20087;-49
2023/06/15 04:18:24;;;;;;;5.75;2.85;;;15.40;99.90;;;;;;5155241;27;20050;-49
2023/06/15 04:20:50;;;;;;;4.72;2.30;;;15.40;99.90;;;;;;5154779;27;20047;-48
2023/06/15 04:23:15;;;;;;;4.85;2.45;;;15.40;99.90;;;;;;5136481;27;20062;-47
2023/06/15 04:25:41;;;;;;;6.05;2.90;;;15.40;99.90;;;;;;5154908;27;20049;-48
2023/06/15 04:28:10;;;;;;;5.38;2.22;;;15.30;99.90;;;;;;5154856;27;20039;-48
2023/06/15 04:30:40;;;;;;;6.43;2.50;;;15.40;99.90;;;;;;5157484;27;20126;-51
2023/06/15 04:33:07;;;;;;;4.32;2.05;;;15.40;99.90;;;;;;5123128;27;20082;-51
2023/06/15 04:35:34;;;;;;;5.40;2.38;;;15.40;99.90;;;;;;5158568;27;20053;-49
2023/06/15 04:38:04;;;;;;;5.40;2.38;;;15.50;99.90;;;;;;5158394;27;20062;-49
2023/06/15 04:40:31;;;;;;;4.82;2.05;;;15.60;99.90;;;;;;5158569;27;20082;-51
2023/06/15 04:43:02;;;;;;;6.57;3.05;;;15.60;99.90;;;;;;5158426;27;20047;-49
2023/06/15 04:45:28;;;;;;;5.03;2.42;;;15.60;99.90;;;;;;5140474;27;20043;-51
2023/06/15 04:47:54;;;;;;;5.28;2.85;;;15.60;99.90;;;;;;5158379;27;20073;-50
2023/06/15 04:50:21;;;;;;;7.53;2.70;;;15.70;99.90;;;;;;5158111;27;20477;-48
2023/06/15 04:52:48;;;;;;;4.90;2.40;;;15.80;99.90;;;;;;5158344;27;20050;-51
2023/06/15 04:55:14;;;;;;;5.68;2.50;;;15.80;99.90;;;;;;5158197;27;20436;-49
2023/06/15 04:57:40;;;;;;;4.65;2.20;;;15.80;99.90;;;;;;5158266;27;20038;-50
2023/06/15 05:00:07;;;;;;;3.92;2.15;;;15.90;99.90;;;;;;5158046;27;20038;-48
2023/06/15 05:02:32;;;;;;;7.10;2.70;;;16.00;99.90;;;;;;5157878;27;20139;-51
2023/06/15 05:04:58;;;;;;;5.20;2.42;;;16.00;99.90;;;;;;5157910;27;20050;-47
2023/06/15 05:07:24;;;;;;;7.40;3.45;;;16.10;99.90;;;;;;5139734;27;20050;-49
2023/06/15 05:09:49;;;;;;;5.00;2.42;;;16.20;99.90;;;;;;5158304;27;20038;-48
2023/06/15 05:12:15;;;;;;;4.47;2.17;;;16.30;99.90;;;;;;5139630;27;20133;-47
2023/06/15 05:14:41;;;;;;;6.57;2.50;;;16.60;99.90;;;;;;5157899;27;20662;-47
2023/06/15 05:17:07;;;;;;;4.57;2.03;;;17.00;99.90;;;;;;5157676;27;20658;-48
2023/06/15 05:19:33;;;;;;;4.60;2.10;;;17.60;99.90;;;;;;5157537;27;20287;-50
2023/06/15 05:22:02;;;;;;;6.03;2.65;;;18.40;99.90;;;;;;5139230;27;20413;-48
2023/06/15 05:24:28;;;;;;;4.95;2.25;;;18.70;99.90;;;;;;5139498;27;20374;-47
2023/06/15 05:26:53;;;;;;;8.65;2.17;;;18.70;99.90;;;;;;5157612;27;20042;-48
2023/06/15 05:29:20;;;;;;;6.05;2.28;;;18.60;99.90;;;;;;5157522;27;20049;-48
2023/06/15 05:31:46;;;;;;;;;;;18.70;99.90;;;;;;5139266;27;20086;-47
2023/06/15 05:34:11;;;;;;;6.22;2.10;;;18.80;99.90;;;;;;5157059;27;19930;-48
2023/06/15 05:36:37;;;;;;;4.60;1.90;;;18.80;99.90;;;;;;5157668;27;20042;-47
2023/06/15 05:39:03;;;;;;;5.47;2.35;;;18.90;99.90;;;;;;5157518;27;20055;-48
2023/06/15 05:41:29;;;;;;;3.63;1.90;;;18.90;99.90;;;;;;5157049;27;20054;-47
2023/06/15 05:43:55;;;;;;;6.07;2.10;;;18.90;99.90;;;;;;5138609;27;20125;-48
2023/06/15 05:46:22;;;;;;;4.70;1.85;;;18.90;99.90;;;;;;5157334;27;20082;-47
2023/06/15 05:48:47;;;;;;;6.10;2.17;;;18.90;99.90;;;;;;5156895;27;20066;-47
2023/06/15 05:51:13;;;;;;;2.92;1.60;;;18.90;99.90;;;;;;5138725;27;20478;-48
2023/06/15 05:53:38;;;;;;;4.00;1.80;;;18.90;99.90;;;;;;5157096;27;20485;-47
2023/06/15 05:56:04;;;;;;;4.53;1.90;;;18.90;99.90;;;;;;5138475;27;20494;-47
2023/06/15 05:58:30;;;;;;;3.40;1.77;;;18.90;99.90;;;;;;5156857;27;20042;-48
2023/06/15 06:00:56;;;;;;;4.00;1.85;;;19.00;99.90;;;;;;5156797;27;20443;-47
2023/06/15 06:03:21;;;;;;;3.78;1.67;;;19.00;99.90;;;;;;5156623;27;20371;-47
2023/06/15 06:05:47;;;;;;;5.03;1.70;;;19.00;99.90;;;;;;5156825;27;20473;-47
2023/06/15 06:08:13;;;;;;;5.18;1.70;;;19.10;99.90;;;;;;5156769;27;20106;-47
2023/06/15 06:10:39;;;;;;;3.72;1.60;;;19.10;99.80;;;;;;5156767;27;20046;-47
2023/06/15 06:13:05;;;;;;;2.78;1.38;;;19.20;99.60;;;;;;5156672;27;20045;-48
2023/06/15 06:15:31;;;;;;;4.18;1.73;;;19.30;99.70;;;;;;5156237;27;20129;-47
2023/06/15 06:17:56;;;;;;;3.78;1.55;;;19.30;99.70;;;;;;5156427;27;20045;-50
2023/06/15 06:20:22;;;;;;;3.40;1.30;;;19.30;99.40;;;;;;5156441;27;20086;-48
2023/06/15 06:22:48;;;;;;;3.22;1.30;;;19.40;98.90;;;;;;5156390;27;20175;-48
2023/06/15 06:25:13;;;;;;;3.78;1.40;;;19.40;98.60;;;;;;5156501;27;20047;-48
2023/06/15 06:27:39;;;;;;;3.95;1.17;;;19.50;98.50;;;;;;5156311;27;20042;-49
2023/06/15 06:30:06;;;;;;;4.35;1.58;;;19.60;98.10;;;;;;5156154;27;20048;-49
2023/06/15 06:32:32;;;;;;;3.33;1.20;;;19.60;98.00;;;;;;5156063;27;20410;-48
2023/06/15 06:34:57;;;;;;;3.10;1.42;;;19.60;97.50;;;;;;5156300;27;20049;-52
2023/06/15 06:37:24;;;;;;;3.08;1.20;;;19.70;97.50;;;;;;5156510;27;20126;-48
2023/06/15 06:39:51;;;;;;;4.90;1.50;;;19.80;97.20;;;;;;5156037;27;20512;-48
2023/06/15 06:42:17;;;;;;;3.90;1.63;;;19.80;96.70;;;;;;5155998;27;20051;-49
2023/06/15 06:44:43;;;;;;;3.38;1.30;;;19.90;96.60;;;;;;5156174;27;20046;-51
2023/06/15 06:47:09;;;;;;;3.67;1.63;;;20.00;96.30;;;;;;5155877;27;20397;-48
2023/06/15 06:49:35;;;;;;;4.07;1.45;;;20.20;96.30;;;;;;5156019;27;20121;-55
2023/06/15 06:52:00;;;;;;;2.58;1.10;;;20.40;95.90;;;;;;5155489;27;20057;-56
2023/06/15 06:54:26;;;;;;;2.75;1.17;;;20.60;95.50;;;;;;5137810;27;20050;-56
2023/06/15 06:56:52;;;;;;;4.65;1.52;;;20.60;94.70;;;;;;5155910;27;20367;-56
2023/06/15 06:59:17;;;;;;;4.28;1.25;;;20.70;94.70;;;;;;5155662;27;20042;-56
2023/06/15 07:01:43;;;;;;;3.22;1.33;;;20.70;94.20;;;;;;5155506;27;20130;-56
2023/06/15 07:04:09;;;;;;;3.15;1.20;;;20.70;93.80;;;;;;5155755;27;20082;-56
2023/06/15 07:06:35;;;;;;;3.38;1.17;;;20.70;93.60;;;;;;5155838;27;20042;-56
2023/06/15 07:09:01;;;;;;;3.28;1.02;;;20.80;93.70;;;;;;5156037;27;20493;-56
2023/06/15 07:11:27;;;;;;;3.30;1.27;;;20.90;93.70;;;;;;5137608;27;20120;-56
2023/06/15 07:13:53;;;;;;;3.28;1.50;;;21.30;93.00;;;;;;5120242;27;20053;-56
2023/06/15 07:16:19;;;;;;;;;;;21.40;93.00;;;;;;5155712;27;20038;-56
2023/06/15 07:18:45;;;;;;;2.65;1.20;;;21.60;92.20;;;;;;5155570;27;19919;-55
2023/06/15 07:21:11;;;;;;;4.47;1.30;;;21.70;92.50;;;;;;5155464;27;20043;-56
2023/06/15 07:23:37;;;;;;;3.33;1.25;;;21.70;92.20;;;;;;5155448;27;20049;-56
2023/06/15 07:26:02;;;;;;;5.00;1.75;;;21.90;91.60;;;;;;5155455;27;20039;-56
2023/06/15 07:28:28;;;;;;;3.40;1.52;;;22.30;90.70;;;;;;5155421;27;20078;-56
2023/06/15 07:30:54;;;;;;;3.70;1.45;;;22.60;90.40;;;;;;5155393;27;20091;-56
2023/06/15 07:33:20;;;;;;;3.92;1.50;;;22.50;90.20;;;;;;5155019;27;20393;-56
2023/06/15 07:35:46;;;;;;;3.03;1.30;;;22.30;90.10;;;;;;5155181;27;20051;-56
2023/06/15 07:38:14;;;;;;;3.60;1.40;;;22.30;90.10;;;;;;5155158;27;20066;-57
2023/06/15 07:40:40;;;;;;;2.88;1.35;;;22.10;90.00;;;;;;5155529;27;20149;-56
2023/06/15 07:43:06;;;;;;;5.28;1.65;;;22.00;90.30;;;;;;5155247;27;20039;-57
2023/06/15 07:45:32;;;;;;;3.28;1.50;;;21.90;90.20;;;;;;5119678;27;20525;-56
2023/06/15 07:47:57;;;;;;;3.97;1.05;;;21.90;89.90;;;;;;5155277;27;20099;-56
2023/06/15 07:50:23;;;;;;;2.75;1.02;;;21.80;90.20;;;;;;5155175;27;20050;-57
2023/06/15 07:52:51;;;;;;;4.00;1.50;;;21.80;90.20;;;;;;5155093;27;20047;-56
2023/06/15 07:55:16;;;;;;;3.95;1.40;;;21.70;90.00;;;;;;5136899;27;20059;-56
2023/06/15 07:57:42;;;;;;;4.00;1.67;;;21.70;89.80;;;;;;5155047;27;20049;-57
2023/06/15 08:00:09;;;;;;;2.63;1.10;;;21.70;89.50;;;;;;5136678;27;20406;-56
2023/06/15 08:02:35;;;;;;;2.75;1.38;;;21.70;89.40;;;;;;5155080;27;20042;-57
2023/06/15 08:05:02;;;;;;;3.10;1.15;;;21.70;89.10;;;;;;5157264;27;20086;-56
2023/06/15 08:07:28;;;;;;;3.28;1.10;;;21.80;88.70;;;;;;5159218;27;20078;-57
2023/06/15 08:09:54;;;;;;;3.00;1.15;;;21.80;88.80;;;;;;5158927;27;20485;-57
2023/06/15 08:12:21;;;;;;;3.58;1.17;;;21.80;88.40;;;;;;5158807;27;20054;-56
2023/06/15 08:14:47;;;;;;;2.50;1.20;;;21.80;87.80;;;;;;5140295;27;20130;-57
2023/06/15 08:17:12;;;;;;;2.75;1.00;;;21.80;87.30;;;;;;5159187;27;20175;-57
2023/06/15 08:19:38;;;;;;;2.38;1.10;;;21.80;86.60;;;;;;5158969;27;20571;-53
2023/06/15 08:22:04;;;;;;;3.88;1.25;;;21.80;86.30;;;;;;5158894;27;20531;-54
2023/06/15 08:24:30;;;;;;;2.95;1.05;;;21.80;85.40;;;;;;5158895;27;20047;-55
2023/06/15 08:26:56;;;;;;;2.70;1.00;;;21.80;85.30;;;;;;5158654;27;20046;-53
2023/06/15 08:29:21;;;;;;;5.32;1.63;;;21.80;85.00;;;;;;5158519;27;20042;-55
2023/06/15 08:31:47;;;;;;;2.20;1.00;;;21.80;84.70;;;;;;5158614;27;20435;-54
2023/06/15 08:34:13;;;;;;;4.35;1.15;;;21.90;84.60;;;;;;5158862;27;20043;-51
2023/06/15 08:36:38;;;;;;;2.28;1.02;;;21.90;84.30;;;;;;5158813;27;20042;-54
2023/06/15 08:39:04;;;;;;;2.92;1.17;;;21.90;83.70;;;;;;5158517;27;20481;-55
2023/06/15 08:41:30;;;;;;;2.33;0.90;;;22.00;83.40;;;;;;5158504;27;20050;-52
2023/06/15 08:43:56;;;;;;;3.05;1.50;;;22.00;82.60;;;;;;5158288;27;20389;-54
2023/06/15 08:46:25;;;;;;;2.60;1.13;;;22.00;82.00;;;;;;5158234;27;20068;-55
2023/06/15 08:48:53;;;;;;;4.20;1.30;;;22.00;81.90;;;;;;5158332;27;20082;-54
2023/06/15 08:51:22;;;;;;;2.35;1.10;;;22.00;81.00;;;;;;5158184;27;20047;-54
2023/06/15 08:53:48;;;;;;;2.70;0.90;;;22.00;80.90;;;;;;5158293;27;20043;-55
2023/06/15 08:56:14;;;;;;;3.30;1.20;;;22.10;80.50;;;;;;5139594;27;20121;-55
2023/06/15 08:58:49;;;;;;;3.65;1.25;;;22.10;80.40;;;;;;5158114;27;20142;-55
2023/06/15 09:01:22;;;;;;;2.42;1.10;;;22.10;80.60;;;;;;5158168;27;20047;-55
2023/06/15 09:03:53;;;;;;;4.07;1.35;;;22.10;80.90;;;;;;5139750;27;20564;-55
2023/06/15 09:06:20;;;;;;;3.30;1.10;;;22.20;80.90;;;;;;5139944;27;20047;-50
2023/06/15 09:08:46;;;;;;;3.88;1.52;;;22.20;80.60;;;;;;5157807;27;20573;-49
2023/06/15 09:11:12;;;;;;;3.38;1.30;;;22.20;80.90;;;;;;5157833;27;20057;-54
2023/06/15 09:13:38;;;;;;;5.03;1.88;;;22.30;80.80;;;;;;5158118;27;20043;-54
2023/06/15 09:16:08;;;;;;;4.82;1.42;;;22.30;80.80;;;;;;5157104;27;20477;-55
2023/06/15 09:18:44;;;;;;;2.90;1.25;;;22.30;80.60;;;;;;5139605;27;20042;-55
2023/06/15 09:21:11;;;;;;;;;;;22.30;80.80;;;;;;5158161;27;20119;-55
2023/06/15 09:23:40;;;;;;;3.67;1.40;;;22.40;80.60;;;;;;5157388;27;19919;-55
2023/06/15 09:26:07;;;;;;;3.40;1.35;;;22.50;80.80;;;;;;5157670;27;20099;-54
2023/06/15 09:28:33;;;;;;;3.15;1.27;;;22.50;79.80;;;;;;5157621;27;20125;-54
2023/06/15 09:31:00;;;;;;;;;;;22.50;79.00;;;;;;5157937;27;20051;-55
2023/06/15 09:33:26;;;;;;;4.05;1.27;;;22.50;77.80;;;;;;5157552;27;19919;-53
2023/06/15 09:36:02;;;;;;;4.38;1.33;;;22.50;78.70;;;;;;5138766;27;20051;-51
2023/06/15 09:38:33;;;;;;;3.15;1.20;;;22.50;78.50;;;;;;5139055;27;20055;-54
2023/06/15 09:41:05;;;;;;;4.78;1.13;;;22.50;78.70;;;;;;5157363;27;20046;-54
2023/06/15 09:43:33;;;;;;;3.03;1.15;;;22.50;79.10;;;;;;5157417;27;20134;-55
2023/06/15 09:46:04;;;;;;;2.00;0.95;;;22.60;79.20;;;;;;5139064;27;20054;-55
2023/06/15 09:48:30;;;;;;;4.10;1.30;;;22.60;78.70;;;;;;5156979;27;20485;-52
2023/06/15 09:50:59;;;;;;;;;;;22.70;78.00;;;;;;5157537;27;20081;-54
2023/06/15 09:53:28;;;;;;;2.00;1.00;;;22.70;75.10;;;;;;5138692;27;19928;-53
2023/06/15 09:55:54;;;;;;;3.20;1.23;;;22.70;75.80;;;;;;5157069;27;20049;-54
2023/06/15 09:58:20;;;;;;;2.92;1.27;;;22.70;75.50;;;;;;5156992;27;20051;-53
2023/06/15 10:00:49;;;;;;;3.10;1.15;;;22.80;75.30;;;;;;5138581;27;20038;-55
2023/06/15 10:03:19;;;;;;;2.85;0.80;;;22.80;75.50;;;;;;5138520;27;20397;-55
2023/06/15 10:05:48;;;;;;;2.83;1.13;;;22.80;75.20;;;;;;5156855;27;20049;-55
2023/06/15 10:08:18;;;;;;;3.67;1.27;;;22.90;74.50;;;;;;5121388;27;20088;-55
2023/06/15 10:10:45;;;;;;;3.72;1.30;;;22.90;74.00;;;;;;5156988;27;20070;-55
2023/06/15 10:13:20;;;;;;;3.28;1.10;;;22.90;74.10;;;;;;5156501;27;20042;-54
2023/06/15 10:15:52;;;;;;;1.63;0.80;;;23.00;74.10;;;;;;5156455;27;20039;-54
2023/06/15 10:18:20;;;;;;;2.08;0.88;;;23.10;73.90;;;;;;5156712;27;20053;-55
2023/06/15 10:20:52;;;;;;;3.20;1.20;;;23.20;73.00;;;;;;5156626;27;20157;-55
2023/06/15 10:23:27;;;;;;;3.00;1.20;;;23.30;72.00;;;;;;5156648;27;20039;-55
2023/06/15 10:25:55;;;;;;;3.40;1.20;;;23.40;71.30;;;;;;5156504;27;20442;-54
2023/06/15 10:28:25;;;;;;;2.33;0.98;;;23.50;71.50;;;;;;5155339;27;20051;-55
2023/06/15 10:31:15;;;;;;;3.83;1.30;;;23.60;71.60;;;;;;5156199;27;20378;-55
2023/06/15 10:33:56;;;;;;;2.72;1.10;;;23.70;70.90;;;;;;5156252;27;20512;-55
2023/06/15 10:36:30;;;;;;;1.65;0.90;;;23.90;67.50;;;;;;5156152;27;20038;-55
2023/06/15 10:39:05;;;;;;;2.85;1.33;;;24.00;67.40;;;;;;5156184;27;20088;-54
2023/06/15 10:41:31;;;;;;;3.17;1.27;;;24.00;68.40;;;;;;5156118;27;20106;-53
2023/06/15 10:44:02;;;;;;;2.78;1.20;;;24.10;68.60;;;;;;5156046;27;20469;-53
2023/06/15 10:46:33;;;;;;;4.85;1.10;;;24.20;68.40;;;;;;5156113;27;20483;-53
2023/06/15 10:49:09;;;;;;;3.03;1.38;;;24.40;68.50;;;;;;5155971;27;20042;-54
2023/06/15 10:51:50;;;;;;;3.17;1.00;;;24.50;68.10;;;;;;5156066;27;20054;-54
2023/06/15 10:54:22;;;;;;;2.75;1.20;;;24.60;67.80;;;;;;5155705;27;20571;-55
2023/06/15 10:56:53;;;;;;;2.17;1.00;;;24.70;67.40;;;;;;5137503;27;20121;-55
2023/06/15 10:59:41;;;;;;;3.08;1.00;;;24.90;67.60;;;;;;5155769;27;20050;-55
2023/06/15 11:02:28;;;;;;;3.78;1.25;;;25.00;67.50;;;;;;5155816;27;20549;-55
2023/06/15 11:05:09;;;;;;;3.72;1.30;;;25.20;66.70;;;;;;5155720;27;20431;-54
2023/06/15 11:07:37;;;;;;;2.35;0.88;;;25.40;66.40;;;;;;5155681;27;20400;-55
2023/06/15 11:10:10;;;;;;;2.83;1.10;;;25.50;65.30;;;;;;5155383;27;20586;-55
2023/06/15 11:12:37;;;;;;;2.42;0.93;;;25.50;65.00;;;;;;5155827;27;20043;-55
2023/06/15 11:15:05;;;;;;;2.83;1.20;;;25.50;65.00;;;;;;5155607;27;20034;-55
2023/06/15 11:17:51;;;;;;;3.25;1.30;;;25.60;64.60;;;;;;5155520;27;20038;-55
2023/06/15 11:20:38;;;;;;;2.13;1.00;;;25.70;64.60;;;;;;5155337;27;20129;-55
2023/06/15 11:23:11;;;;;;;5.20;2.33;;;25.80;62.90;;;;;;5155461;27;20074;-53
2023/06/15 11:25:47;;;;;;;3.03;1.35;;;25.80;63.00;;;;;;5155770;27;20405;-53
2023/06/15 11:28:15;;;;;;;2.85;1.30;;;25.90;62.80;;;;;;5155455;27;20043;-55
2023/06/15 11:30:42;;;;;;;3.42;1.15;;;25.90;63.70;;;;;;5155253;27;20038;-55
2023/06/15 11:33:12;;;;;;;3.90;1.38;;;26.00;63.90;;;;;;5155168;27;20508;-55
2023/06/15 11:35:38;;;;;;;2.75;1.10;;;26.20;63.80;;;;;;5155351;27;20046;-56
2023/06/15 11:38:08;;;;;;;3.35;1.30;;;26.20;62.30;;;;;;5156172;27;20058;-55
2023/06/15 11:40:34;;;;;;;4.43;1.30;;;26.30;62.90;;;;;;5162254;27;20386;-54
2023/06/15 11:43:04;;;;;;;2.50;1.13;;;26.40;63.30;;;;;;5162104;27;20043;-54
2023/06/15 11:45:29;;;;;;;2.50;1.20;;;26.60;63.30;;;;;;5143591;27;20086;-53
2023/06/15 11:47:55;;;;;;;2.63;1.23;;;26.60;62.30;;;;;;5162332;27;20081;-53
2023/06/15 11:50:22;;;;;;;3.40;1.40;;;26.70;62.30;;;;;;5162182;27;20581;-48
2023/06/15 11:52:48;;;;;;;2.83;1.27;;;26.60;61.90;;;;;;5162148;27;20047;-55
2023/06/15 11:55:16;;;;;;;4.03;1.50;;;26.60;61.30;;;;;;5162141;27;20054;-55
2023/06/15 11:57:43;;;;;;;2.67;1.08;;;26.60;61.00;;;;;;5161969;27;20523;-54
2023/06/15 12:00:10;;;;;;;1.95;1.10;;;26.60;60.80;;;;;;5161885;27;20071;-49
2023/06/15 12:02:37;;;;;;;3.13;1.27;;;26.70;60.70;;;;;;5162142;27;20038;-51
2023/06/15 12:05:03;;;;;;;2.85;0.93;;;26.70;60.40;;;;;;5162016;27;20054;-51
2023/06/15 12:07:34;;;;;;;2.47;1.10;;;26.80;60.50;;;;;;5143688;27;20051;-48
2023/06/15 12:10:00;;;;;;;2.08;1.10;;;26.90;60.20;;;;;;5161829;27;20053;-52
2023/06/15 12:12:35;;;;;;;2.08;1.05;;;27.00;60.00;;;;;;5161778;27;20043;-53
2023/06/15 12:15:06;;;;;;;2.78;0.95;;;27.10;60.10;;;;;;5162550;27;20050;-54
2023/06/15 12:17:33;;;;;;;3.22;1.20;;;27.20;59.40;;;;;;5162149;27;20046;-54
2023/06/15 12:20:09;;;;;;;3.17;1.33;;;27.30;58.70;;;;;;5143510;27;20043;-54
2023/06/15 12:22:46;;;;;;;3.28;1.40;;;27.30;58.10;;;;;;5143562;27;20054;-48
2023/06/15 12:25:13;;;;;;;3.17;1.35;;;27.40;57.60;;;;;;5161861;27;20053;-52
2023/06/15 12:27:46;;;;;;;2.28;0.95;;;27.30;56.80;;;;;;5143733;27;20082;-53
2023/06/15 12:30:14;;;;;;;2.30;0.98;;;27.20;57.00;;;;;;5161946;27;20046;-53
2023/06/15 12:32:49;;;;;;;3.72;1.15;;;27.20;56.60;;;;;;5161625;27;20047;-54
2023/06/15 12:35:26;;;;;;;3.47;1.02;;;27.20;56.90;;;;;;5161745;27;20078;-55
2023/06/15 12:37:54;;;;;;;2.83;1.15;;;27.20;56.40;;;;;;5161467;27;20043;-56
2023/06/15 12:40:21;;;;;;;2.42;1.10;;;27.20;56.20;;;;;;5161765;27;20507;-49
2023/06/15 12:43:02;;;;;;;3.65;1.10;;;27.20;56.10;;;;;;5161622;27;20072;-52
2023/06/15 12:45:28;;;;;;;3.35;1.05;;;27.20;56.40;;;;;;5143055;27;20038;-53
2023/06/15 12:47:54;;;;;;;11.70;1.65;;;27.30;56.50;;;;;;5161246;27;20066;-51
2023/06/15 12:50:20;;;;;;;2.97;1.30;;;27.30;56.20;;;;;;5159299;27;20130;-48
2023/06/15 12:52:45;;;;;;;2.90;1.02;;;27.30;56.10;;;;;;5158376;27;20121;-49